createdAt,value
2024-02-20T00:01:50.835Z,6.18
2024-02-20T00:04:18.219Z,5.78
2024-02-20T00:06:44.262Z,6.47
2024-02-20T00:09:10.096Z,6.15
2024-02-20T00:11:35.952Z,6.85
2024-02-20T00:14:01.856Z,6.97
2024-02-20T00:16:27.821Z,7.45
2024-02-20T00:18:53.811Z,8.05
2024-02-20T00:21:19.661Z,7.90
2024-02-20T00:23:45.466Z,7.82
2024-02-20T00:26:11.283Z,7.72
2024-02-20T00:28:40.925Z,6.40
2024-02-20T00:31:07.206Z,7.28
2024-02-20T00:33:33.421Z,6.53
2024-02-20T00:35:59.255Z,6.40
2024-02-20T00:38:25.045Z,7.93
2024-02-20T00:40:50.834Z,7.38
2024-02-20T00:43:16.844Z,7.35
2024-02-20T00:45:44.754Z,7.28
2024-02-20T00:48:11.374Z,7.60
2024-02-20T00:50:38.222Z,6.70
2024-02-20T00:53:04.652Z,6.95
2024-02-20T00:55:30.709Z,6.93
2024-02-20T00:57:58.590Z,7.72
2024-02-20T01:00:24.728Z,7.43
2024-02-20T01:02:50.678Z,7.15
2024-02-20T01:05:17.026Z,8.27
2024-02-20T01:07:42.982Z,7.25
2024-02-20T01:10:09.172Z,7.80
2024-02-20T01:12:35.311Z,7.90
2024-02-20T01:15:01.397Z,6.25
2024-02-20T01:17:27.294Z,6.45
2024-02-20T01:19:53.273Z,6.35
2024-02-20T01:22:19.194Z,6.07
2024-02-20T01:24:54.230Z,6.32
2024-02-20T01:27:20.095Z,6.57
2024-02-20T01:29:46.454Z,5.70
2024-02-20T01:32:12.318Z,5.63
2024-02-20T01:34:38.656Z,5.63
2024-02-20T01:37:06.090Z,5.72
2024-02-20T01:39:32.392Z,5.25
2024-02-20T01:41:58.248Z,5.38
2024-02-20T01:44:33.926Z,5.35
2024-02-20T01:47:00.744Z,4.82
2024-02-20T01:49:27.831Z,4.68
2024-02-20T01:51:55.169Z,5.40
2024-02-20T01:54:21.153Z,6.60
2024-02-20T01:56:55.848Z,5.10
2024-02-20T01:59:22.039Z,5.35
2024-02-20T02:01:48.994Z,6.15
2024-02-20T02:04:14.925Z,5.13
2024-02-20T02:06:41.772Z,4.85
2024-02-20T02:09:07.895Z,4.78
2024-02-20T02:11:42.937Z,4.28
2024-02-20T02:14:10.479Z,4.28
2024-02-20T02:16:39.580Z,4.28
2024-02-20T02:19:05.856Z,4.05
2024-02-20T02:21:31.869Z,3.80
2024-02-20T02:23:57.747Z,3.58
2024-02-20T02:26:23.554Z,3.22
2024-02-20T02:28:49.454Z,3.75
2024-02-20T02:31:17.081Z,3.55
2024-02-20T02:33:49.167Z,3.85
2024-02-20T02:36:15.304Z,4.25
2024-02-20T02:38:41.243Z,3.40
2024-02-20T02:41:07.042Z,3.45
2024-02-20T02:43:33.352Z,3.10
2024-02-20T02:45:59.543Z,3.33
2024-02-20T02:48:25.378Z,2.70
2024-02-20T02:50:51.165Z,3.35
2024-02-20T02:53:17.190Z,3.03
2024-02-20T02:55:43.081Z,3.05
2024-02-20T02:58:09.135Z,2.60
2024-02-20T03:00:35.084Z,2.88
2024-02-20T03:03:01.074Z,3.63
2024-02-20T03:05:27.075Z,2.60
2024-02-20T03:07:53.080Z,3.03
2024-02-20T03:10:19.077Z,3.38
2024-02-20T03:12:45.014Z,3.28
2024-02-20T03:15:12.141Z,2.88
2024-02-20T03:17:44.147Z,3.22
2024-02-20T03:20:15.558Z,2.97
2024-02-20T03:22:42.064Z,3.55
2024-02-20T03:25:15.461Z,3.30
2024-02-20T03:27:41.322Z,3.80
2024-02-20T03:30:07.586Z,3.95
2024-02-20T03:32:33.722Z,3.67
2024-02-20T03:34:59.768Z,3.60
2024-02-20T03:37:25.647Z,4.00
2024-02-20T03:39:52.390Z,3.38
2024-02-20T03:42:18.205Z,4.03
2024-02-20T03:44:44.177Z,4.45
2024-02-20T03:47:10.217Z,5.07
2024-02-20T03:49:36.243Z,5.80
2024-02-20T03:52:02.204Z,5.05
2024-02-20T03:54:28.388Z,5.60
2024-02-20T03:56:54.383Z,4.70
2024-02-20T03:59:21.153Z,5.05
2024-02-20T04:01:47.149Z,5.38
2024-02-20T04:04:13.926Z,5.25
2024-02-20T04:06:40.128Z,4.80
2024-02-20T04:09:05.992Z,5.00
2024-02-20T04:11:31.966Z,5.68
2024-02-20T04:13:57.928Z,4.47
2024-02-20T04:16:23.871Z,5.70
2024-02-20T04:18:49.746Z,4.10
2024-02-20T04:21:15.620Z,4.90
2024-02-20T04:23:41.489Z,4.40
2024-02-20T04:26:07.371Z,4.72
2024-02-20T04:28:36.493Z,4.97
2024-02-20T04:31:02.968Z,3.85
2024-02-20T04:33:29.477Z,3.13
2024-02-20T04:35:55.587Z,3.28
2024-02-20T04:38:21.751Z,3.72
2024-02-20T04:40:48.950Z,4.18
2024-02-20T04:43:14.872Z,3.83
2024-02-20T04:45:40.817Z,4.32
2024-02-20T04:48:07.038Z,3.53
2024-02-20T04:50:33.736Z,2.72
2024-02-20T04:52:59.657Z,3.15
2024-02-20T04:55:27.129Z,2.65
2024-02-20T04:57:53.410Z,3.63
2024-02-20T05:00:19.399Z,3.03
2024-02-20T05:02:45.509Z,2.65
2024-02-20T05:05:11.738Z,1.80
2024-02-20T05:07:38.061Z,1.95
2024-02-20T05:10:06.787Z,1.67
2024-02-20T05:12:32.729Z,1.20
2024-02-20T05:14:58.561Z,1.63
2024-02-20T05:17:24.394Z,1.55
2024-02-20T05:19:50.376Z,1.45
2024-02-20T05:22:17.959Z,1.50
2024-02-20T05:24:44.095Z,1.30
2024-02-20T05:27:09.992Z,0.98
2024-02-20T05:29:35.860Z,1.20
2024-02-20T05:32:02.090Z,1.65
2024-02-20T05:34:28.295Z,1.83
2024-02-20T05:36:54.272Z,1.00
2024-02-20T05:39:20.549Z,0.93
2024-02-20T05:41:46.998Z,0.80
2024-02-20T05:44:13.154Z,0.85
2024-02-20T05:46:43.226Z,0.85
2024-02-20T05:49:11.185Z,0.90
2024-02-20T05:51:37.481Z,0.98
2024-02-20T05:54:03.627Z,0.90
2024-02-20T05:56:29.752Z,0.90
2024-02-20T05:58:56.090Z,1.13
2024-02-20T06:01:23.064Z,0.73
2024-02-20T06:03:49.117Z,1.05
2024-02-20T06:06:15.225Z,0.88
2024-02-20T06:08:43.189Z,0.70
2024-02-20T06:11:15.724Z,0.80
2024-02-20T06:13:42.567Z,1.17
2024-02-20T06:16:08.559Z,0.90
2024-02-20T06:18:34.763Z,1.65
2024-02-20T06:21:01.547Z,0.60
2024-02-20T06:23:27.635Z,0.60
2024-02-20T06:26:06.791Z,0.85
2024-02-20T06:28:33.662Z,0.90
2024-02-20T06:31:01.305Z,0.88
2024-02-20T06:33:27.658Z,0.90
2024-02-20T06:35:53.701Z,0.90
2024-02-20T06:38:19.765Z,0.98
2024-02-20T06:40:45.778Z,0.70
2024-02-20T06:43:11.895Z,1.10
2024-02-20T06:45:37.977Z,0.80
2024-02-20T06:48:04.369Z,0.88
2024-02-20T06:50:30.342Z,0.95
2024-02-20T06:52:56.477Z,0.98
2024-02-20T06:55:31.489Z,0.82
2024-02-20T06:57:59.463Z,0.90
2024-02-20T07:00:25.947Z,0.90
2024-02-20T07:02:52.045Z,1.00
2024-02-20T07:05:18.234Z,0.82
2024-02-20T07:07:47.372Z,1.10
2024-02-20T07:10:13.689Z,0.90
2024-02-20T07:12:39.724Z,0.70
2024-02-20T07:15:08.634Z,1.13
2024-02-20T07:17:35.029Z,0.95
2024-02-20T07:20:01.565Z,0.82
2024-02-20T07:22:29.362Z,1.10
2024-02-20T07:25:00.668Z,0.85
2024-02-20T07:27:26.818Z,0.80
2024-02-20T07:29:52.893Z,1.17
2024-02-20T07:32:18.995Z,1.25
2024-02-20T07:34:54.803Z,0.80
2024-02-20T07:37:21.015Z,1.02
2024-02-20T07:39:46.948Z,0.80
2024-02-20T07:42:13.141Z,1.27
2024-02-20T07:44:39.081Z,1.60
2024-02-20T07:47:05.329Z,1.17
2024-02-20T07:49:31.508Z,1.00
2024-02-20T07:51:58.327Z,1.60
2024-02-20T07:54:24.884Z,1.77
2024-02-20T07:56:51.420Z,2.08
2024-02-20T07:59:19.862Z,0.93
2024-02-20T08:01:51.148Z,1.60
2024-02-20T08:04:18.177Z,1.77
2024-02-20T08:06:44.717Z,1.52
2024-02-20T08:09:11.015Z,1.50
2024-02-20T08:11:37.568Z,1.50
2024-02-20T08:14:04.055Z,2.15
2024-02-20T08:16:32.082Z,1.80
2024-02-20T08:18:58.423Z,1.73
2024-02-20T08:21:24.494Z,2.03
2024-02-20T08:23:50.797Z,1.65
2024-02-20T08:26:20.022Z,2.90
2024-02-20T08:28:48.422Z,2.70
2024-02-20T08:31:19.280Z,2.45
2024-02-20T08:36:12.052Z,2.10
2024-02-20T08:38:38.004Z,2.58
2024-02-20T08:41:04.138Z,2.97
2024-02-20T08:43:30.295Z,2.33
2024-02-20T08:45:56.366Z,2.95
2024-02-20T08:48:22.500Z,2.75
2024-02-20T08:50:48.663Z,3.10
2024-02-20T08:53:14.651Z,2.33
2024-02-20T08:55:40.997Z,2.75
2024-02-20T08:58:07.234Z,2.70
2024-02-20T09:00:34.065Z,2.25
2024-02-20T09:03:00.217Z,2.70
2024-02-20T09:05:27.278Z,2.58
2024-02-20T09:07:54.229Z,2.28
2024-02-20T09:10:20.474Z,2.10
2024-02-20T09:12:46.414Z,3.03
2024-02-20T09:15:12.633Z,2.80
2024-02-20T09:17:39.541Z,4.65
2024-02-20T09:20:07.836Z,4.43
2024-02-20T09:22:35.115Z,3.13
2024-02-20T09:25:32.451Z,2.80
2024-02-20T09:27:58.446Z,3.63
2024-02-20T09:30:24.594Z,4.93
2024-02-20T09:32:50.877Z,5.10
2024-02-20T09:35:17.140Z,3.90
2024-02-20T09:37:43.775Z,3.28
2024-02-20T09:40:16.460Z,4.13
2024-02-20T09:42:49.343Z,4.40
2024-02-20T09:45:21.556Z,3.88
2024-02-20T09:47:55.495Z,3.33
2024-02-20T09:50:23.100Z,3.70
2024-02-20T09:52:54.272Z,4.03
2024-02-20T09:55:21.720Z,3.78
2024-02-20T09:57:52.332Z,3.38
2024-02-20T10:00:19.908Z,3.00
2024-02-20T10:02:46.836Z,3.75
2024-02-20T10:05:14.239Z,3.90
2024-02-20T10:07:42.174Z,4.78
2024-02-20T10:10:12.263Z,3.13
2024-02-20T10:12:40.594Z,3.60
2024-02-20T10:15:07.830Z,3.78
2024-02-20T10:17:35.529Z,3.85
2024-02-20T10:20:11.826Z,3.38
2024-02-20T10:22:44.084Z,4.22
2024-02-20T10:25:15.694Z,3.28
2024-02-20T10:27:42.576Z,5.72
2024-02-20T10:30:08.897Z,3.03
2024-02-20T10:32:36.928Z,4.22
2024-02-20T10:35:05.034Z,3.75
2024-02-20T10:37:32.384Z,5.22
2024-02-20T10:40:16.911Z,3.72
2024-02-20T10:42:50.375Z,3.53
2024-02-20T10:45:16.705Z,2.95
2024-02-20T10:47:42.612Z,3.50
2024-02-20T10:50:09.023Z,3.92
2024-02-20T10:52:36.326Z,5.15
2024-02-20T10:55:17.449Z,6.68
2024-02-20T10:57:54.156Z,3.72
2024-02-20T11:00:20.261Z,4.10
2024-02-20T11:02:47.222Z,3.85
2024-02-20T11:05:14.102Z,4.32
2024-02-20T11:07:40.593Z,3.05
2024-02-20T11:10:07.500Z,3.30
2024-02-20T11:12:35.497Z,4.00
2024-02-20T11:15:09.280Z,5.57
2024-02-20T11:17:36.721Z,3.30
2024-02-20T11:20:29.041Z,3.95
2024-02-20T11:22:55.122Z,4.00
2024-02-20T11:25:33.171Z,3.78
2024-02-20T11:27:59.309Z,4.43
2024-02-20T11:30:31.613Z,4.18
2024-02-20T11:32:58.529Z,4.13
2024-02-20T11:35:26.532Z,3.15
2024-02-20T11:37:55.535Z,3.97
2024-02-20T11:40:23.191Z,3.95
2024-02-20T11:42:51.373Z,4.30
2024-02-20T11:45:24.199Z,3.85
2024-02-20T11:48:03.703Z,4.43
2024-02-20T11:50:33.558Z,3.58
2024-02-20T11:53:00.662Z,3.85
2024-02-20T11:55:36.540Z,3.05
2024-02-20T11:58:06.177Z,3.88
2024-02-20T12:00:34.073Z,4.72
2024-02-20T12:03:01.708Z,3.97
2024-02-20T12:05:28.966Z,3.03
2024-02-20T12:07:55.918Z,2.78
2024-02-20T12:10:24.555Z,3.53
2024-02-20T12:12:51.983Z,3.63
2024-02-20T12:15:18.184Z,3.70
2024-02-20T12:17:45.327Z,4.47
2024-02-20T12:20:12.365Z,3.45
2024-02-20T12:22:42.246Z,3.70
2024-02-20T12:25:26.985Z,3.60
2024-02-20T12:27:56.311Z,4.53
2024-02-20T12:30:23.144Z,3.30
2024-02-20T12:32:49.590Z,4.10
2024-02-20T12:35:16.198Z,3.83
2024-02-20T12:37:43.746Z,4.43
2024-02-20T12:40:10.324Z,4.35
2024-02-20T12:42:36.954Z,3.63
2024-02-20T12:45:03.796Z,3.75
2024-02-20T12:47:30.090Z,3.65
2024-02-20T12:49:56.494Z,4.38
2024-02-20T12:52:22.571Z,4.78
2024-02-20T12:54:48.735Z,3.80
2024-02-20T12:57:14.882Z,3.97
2024-02-20T12:59:41.793Z,2.83
2024-02-20T13:02:08.607Z,4.13
2024-02-20T13:04:35.706Z,2.78
2024-02-20T13:07:02.105Z,5.00
2024-02-20T13:09:28.920Z,3.25
2024-02-20T13:12:00.805Z,3.88
2024-02-20T13:14:28.085Z,3.65
2024-02-20T13:16:54.622Z,4.95
2024-02-20T13:19:22.605Z,3.80
2024-02-20T13:21:49.048Z,3.55
2024-02-20T13:24:15.273Z,4.03
2024-02-20T13:26:41.821Z,4.80
2024-02-20T13:29:12.435Z,3.88
2024-02-20T13:34:06.926Z,3.65
2024-02-20T13:36:33.214Z,4.50
2024-02-20T13:38:59.684Z,4.20
2024-02-20T13:41:29.026Z,3.95
2024-02-20T13:43:55.291Z,3.40
2024-02-20T13:46:23.207Z,4.32
2024-02-20T13:48:50.031Z,4.03
2024-02-20T13:51:17.407Z,3.35
2024-02-20T13:53:43.592Z,4.28
2024-02-20T13:56:09.761Z,4.00
2024-02-20T13:58:35.930Z,4.38
2024-02-20T14:01:02.594Z,4.10
2024-02-20T14:03:30.251Z,3.92
2024-02-20T14:05:56.516Z,3.67
2024-02-20T14:08:23.871Z,3.88
2024-02-20T14:10:50.836Z,3.33
2024-02-20T14:13:17.342Z,4.20
2024-02-20T14:15:44.253Z,4.05
2024-02-20T14:18:10.623Z,3.15
2024-02-20T14:20:37.195Z,3.95
2024-02-20T14:23:04.949Z,4.55
2024-02-20T14:26:05.701Z,4.38
2024-02-20T14:31:03.138Z,3.42
2024-02-20T14:33:29.950Z,4.70
2024-02-20T14:35:57.456Z,4.13
2024-02-20T14:38:23.602Z,3.20
2024-02-20T14:40:51.275Z,3.15
2024-02-20T14:43:18.834Z,3.40
2024-02-20T14:45:46.296Z,3.63
2024-02-20T14:48:12.405Z,4.90
2024-02-20T14:50:38.639Z,4.03
2024-02-20T14:53:06.412Z,4.25
2024-02-20T14:55:58.336Z,3.90
2024-02-20T14:58:24.800Z,3.33
2024-02-20T15:00:51.264Z,4.15
2024-02-20T15:03:20.642Z,3.83
2024-02-20T15:08:17.680Z,4.20
2024-02-20T15:10:43.891Z,4.03
2024-02-20T15:13:10.349Z,4.32
2024-02-20T15:15:39.857Z,5.82
2024-02-20T15:18:06.408Z,3.85
2024-02-20T15:20:32.564Z,5.03
2024-02-20T15:22:58.769Z,4.22
2024-02-20T15:25:28.245Z,4.45
2024-02-20T15:27:54.878Z,3.65
2024-02-20T15:30:21.066Z,4.85
2024-02-20T15:32:49.607Z,3.97
2024-02-20T15:35:16.224Z,4.00
2024-02-20T15:37:46.063Z,3.83
2024-02-20T15:40:12.468Z,4.00
2024-02-20T15:42:43.539Z,4.93
2024-02-20T15:45:10.172Z,3.47
2024-02-20T15:47:36.469Z,4.18
2024-02-20T15:50:04.068Z,4.20
2024-02-20T15:52:31.220Z,4.05
2024-02-20T15:55:19.040Z,4.50
2024-02-20T15:57:47.677Z,5.53
2024-02-20T16:00:14.349Z,4.82
2024-02-20T16:02:40.415Z,3.70
2024-02-20T16:05:07.664Z,4.93
2024-02-20T16:07:34.161Z,3.92
2024-02-20T16:10:00.518Z,3.83
2024-02-20T16:12:26.626Z,4.00
2024-02-20T16:14:54.221Z,4.82
2024-02-20T16:17:22.481Z,3.67
2024-02-20T16:19:50.220Z,4.88
2024-02-20T16:22:22.340Z,3.58
2024-02-20T16:25:06.739Z,4.47
2024-02-20T16:27:33.789Z,3.75
2024-02-20T16:30:00.323Z,4.38
2024-02-20T16:32:26.796Z,3.95
2024-02-20T16:34:53.182Z,4.30
2024-02-20T16:37:20.056Z,4.75
2024-02-20T16:39:46.204Z,4.20
2024-02-20T16:42:12.378Z,4.63
2024-02-20T16:44:38.658Z,4.68
2024-02-20T16:47:06.428Z,4.80
2024-02-20T16:49:33.971Z,4.63
2024-02-20T16:52:01.396Z,6.15
2024-02-20T16:54:28.721Z,4.50
2024-02-20T16:56:57.219Z,4.53
2024-02-20T16:59:23.323Z,4.93
2024-02-20T17:01:54.326Z,4.85
2024-02-20T17:04:21.737Z,4.65
2024-02-20T17:06:48.418Z,4.35
2024-02-20T17:09:16.159Z,4.88
2024-02-20T17:11:43.274Z,5.90
2024-02-20T17:14:12.400Z,5.18
2024-02-20T17:16:39.121Z,6.35
2024-02-20T17:19:08.928Z,3.85
2024-02-20T17:21:35.294Z,4.05
2024-02-20T17:24:01.374Z,5.00
2024-02-20T17:26:27.693Z,4.85
2024-02-20T17:28:54.664Z,4.45
2024-02-20T17:31:20.893Z,4.93
2024-02-20T17:33:47.506Z,5.22
2024-02-20T17:36:17.468Z,4.57
2024-02-20T17:38:43.738Z,5.05
2024-02-20T17:41:19.108Z,4.13
2024-02-20T17:43:45.217Z,4.32
2024-02-20T17:46:15.500Z,3.83
2024-02-20T17:48:44.750Z,5.80
2024-02-20T17:51:11.792Z,5.22
2024-02-20T17:53:41.277Z,4.60
2024-02-20T17:56:13.009Z,4.72
2024-02-20T17:58:39.285Z,5.05
2024-02-20T18:01:05.741Z,4.95
2024-02-20T18:03:33.026Z,4.55
2024-02-20T18:06:00.126Z,4.25
2024-02-20T18:08:26.837Z,4.53
2024-02-20T18:10:53.594Z,4.45
2024-02-20T18:13:20.055Z,4.25
2024-02-20T18:15:46.111Z,4.18
2024-02-20T18:18:12.511Z,4.43
2024-02-20T18:20:38.586Z,4.00
2024-02-20T18:23:04.623Z,4.80
2024-02-20T18:25:35.691Z,3.38
2024-02-20T18:28:02.465Z,3.58
2024-02-20T18:30:29.233Z,3.88
2024-02-20T18:32:55.777Z,4.43
2024-02-20T18:35:22.229Z,3.60
2024-02-20T18:37:48.843Z,3.92
2024-02-20T18:40:15.521Z,3.90
2024-02-20T18:42:41.672Z,3.92
2024-02-20T18:45:07.822Z,4.03
2024-02-20T18:47:33.894Z,3.25
2024-02-20T18:49:59.947Z,4.72
2024-02-20T18:52:25.991Z,3.00
2024-02-20T18:54:55.408Z,4.20
2024-02-20T18:57:21.508Z,4.40
2024-02-20T18:59:47.675Z,4.75
2024-02-20T19:02:22.558Z,3.75
2024-02-20T19:04:54.014Z,3.90
2024-02-20T19:07:20.194Z,4.68
2024-02-20T19:09:48.924Z,4.45
2024-02-20T19:12:15.326Z,4.18
2024-02-20T19:14:41.336Z,3.17
2024-02-20T19:17:09.088Z,3.65
2024-02-20T19:19:35.236Z,3.67
2024-02-20T19:22:01.150Z,4.20
2024-02-20T19:24:42.570Z,3.53
2024-02-20T19:27:11.061Z,3.20
2024-02-20T19:29:38.532Z,4.38
2024-02-20T19:32:05.054Z,3.95
2024-02-20T19:34:32.349Z,3.97
2024-02-20T19:36:58.493Z,5.63
2024-02-20T19:39:24.855Z,4.80
2024-02-20T19:41:53.296Z,4.75
2024-02-20T19:44:19.752Z,4.18
2024-02-20T19:46:45.980Z,4.88
2024-02-20T19:49:12.083Z,3.80
2024-02-20T19:51:38.014Z,3.80
2024-02-20T19:54:04.269Z,4.07
2024-02-20T19:56:31.622Z,4.25
2024-02-20T19:58:57.769Z,4.82
2024-02-20T20:01:23.811Z,5.35
2024-02-20T20:03:52.403Z,5.10
2024-02-20T20:06:18.215Z,5.80
2024-02-20T20:08:44.482Z,4.70
2024-02-20T20:11:11.419Z,4.97
2024-02-20T20:13:38.046Z,4.45
2024-02-20T20:16:05.241Z,6.32
2024-02-20T20:18:33.100Z,5.20
2024-02-20T20:20:59.564Z,4.63
2024-02-20T20:23:28.668Z,5.50
2024-02-20T20:26:20.200Z,4.72
2024-02-20T20:28:47.561Z,4.35
2024-02-20T20:31:15.093Z,4.65
2024-02-20T20:33:41.906Z,4.90
2024-02-20T20:36:09.297Z,5.30
2024-02-20T20:38:36.581Z,5.30
2024-02-20T20:41:04.253Z,5.03
2024-02-20T20:43:31.538Z,5.30
2024-02-20T20:45:57.639Z,6.13
2024-02-20T20:48:23.653Z,6.57
2024-02-20T20:50:49.961Z,5.60
2024-02-20T20:53:18.945Z,5.47
2024-02-20T20:55:45.828Z,5.60
2024-02-20T20:58:11.948Z,5.47
2024-02-20T21:00:40.362Z,5.93
2024-02-20T21:03:09.613Z,5.95
2024-02-20T21:05:37.971Z,5.88
2024-02-20T21:08:07.600Z,6.45
2024-02-20T21:10:34.881Z,5.45
2024-02-20T21:13:01.851Z,5.88
2024-02-20T21:15:28.121Z,6.80
2024-02-20T21:17:54.992Z,5.90
2024-02-20T21:20:21.040Z,5.80
2024-02-20T21:22:47.176Z,6.25
2024-02-20T21:25:25.642Z,4.97
2024-02-20T21:27:51.707Z,6.30
2024-02-20T21:30:18.173Z,5.72
2024-02-20T21:32:44.260Z,6.97
2024-02-20T21:35:13.107Z,7.28
2024-02-20T21:37:39.173Z,4.88
2024-02-20T21:40:07.569Z,6.57
2024-02-20T21:42:34.626Z,6.22
2024-02-20T21:45:00.780Z,6.75
2024-02-20T21:47:27.212Z,5.47
2024-02-20T21:49:53.298Z,5.45
2024-02-20T21:52:19.266Z,7.32
2024-02-20T21:54:50.227Z,6.07
2024-02-20T21:57:16.197Z,5.78
2024-02-20T21:59:42.006Z,6.30
2024-02-20T22:02:08.576Z,5.65
2024-02-20T22:04:34.440Z,6.88
2024-02-20T22:07:00.634Z,6.10
2024-02-20T22:09:26.998Z,8.32
2024-02-20T22:11:53.408Z,6.50
2024-02-20T22:14:20.571Z,6.40
2024-02-20T22:16:46.594Z,6.82
2024-02-20T22:19:12.556Z,6.65
2024-02-20T22:21:38.644Z,6.38
2024-02-20T22:24:08.538Z,6.53
2024-02-20T22:26:35.788Z,6.05
2024-02-20T22:29:02.093Z,5.70
2024-02-20T22:31:27.977Z,8.80
2024-02-20T22:33:55.149Z,5.22
2024-02-20T22:36:21.714Z,5.57
2024-02-20T22:38:47.655Z,5.38
2024-02-20T22:41:15.017Z,5.35
2024-02-20T22:43:41.560Z,5.95
2024-02-20T22:46:07.488Z,5.18
2024-02-20T22:48:33.586Z,6.55
2024-02-20T22:50:59.526Z,5.97
2024-02-20T22:53:28.153Z,6.22
2024-02-20T22:55:57.766Z,5.75
2024-02-20T22:58:23.658Z,5.20
2024-02-20T23:00:50.900Z,5.55
2024-02-20T23:03:16.921Z,6.95
2024-02-20T23:05:42.860Z,5.97
2024-02-20T23:08:08.917Z,5.22
2024-02-20T23:10:35.527Z,6.00
2024-02-20T23:13:01.692Z,5.72
2024-02-20T23:15:28.378Z,6.00
2024-02-20T23:17:54.340Z,6.72
2024-02-20T23:20:20.477Z,4.63
2024-02-20T23:22:46.377Z,5.82
2024-02-20T23:25:15.362Z,4.97
2024-02-20T23:27:42.210Z,5.63
2024-02-20T23:30:09.422Z,5.32
2024-02-20T23:32:35.425Z,5.07
2024-02-20T23:35:01.359Z,5.00
2024-02-20T23:37:27.891Z,3.75
2024-02-20T23:39:53.725Z,5.28
2024-02-20T23:42:19.572Z,5.47
2024-02-20T23:44:45.995Z,6.60
2024-02-20T23:47:12.847Z,5.25
2024-02-20T23:49:38.694Z,5.55
2024-02-20T23:52:04.678Z,4.82
2024-02-20T23:54:30.629Z,4.60
2024-02-20T23:56:56.692Z,3.60
2024-02-20T23:59:22.566Z,4.13
